sensor_id;sensor_type;location;lat;lon;timestamp;temperature;humidity
7014;DHT22;3547;50.774;12.918;2024-03-08T00:00:44;-0.90;99.90
7014;DHT22;3547;50.774;12.918;2024-03-08T00:03:10;-0.90;99.90
7014;DHT22;3547;50.774;12.918;2024-03-08T00:05:36;-0.90;99.90
7014;DHT22;3547;50.774;12.918;2024-03-08T00:08:07;-0.80;99.90
7014;DHT22;3547;50.774;12.918;2024-03-08T00:10:35;-0.70;99.90
7014;DHT22;3547;50.774;12.918;2024-03-08T00:13:01;-0.90;99.90
7014;DHT22;3547;50.774;12.918;2024-03-08T00:15:30;-0.90;99.90
7014;DHT22;3547;50.774;12.918;2024-03-08T00:17:58;-0.90;99.90
7014;DHT22;3547;50.774;12.918;2024-03-08T00:20:24;-0.80;99.90
7014;DHT22;3547;50.774;12.918;2024-03-08T00:22:50;-0.70;99.90
7014;DHT22;3547;50.774;12.918;2024-03-08T00:25:17;-0.70;99.90
7014;DHT22;3547;50.774;12.918;2024-03-08T00:27:44;-0.70;99.90
7014;DHT22;3547;50.774;12.918;2024-03-08T00:30:10;-0.70;99.90
7014;DHT22;3547;50.774;12.918;2024-03-08T00:32:39;-0.70;99.90
7014;DHT22;3547;50.774;12.918;2024-03-08T00:35:05;-0.80;99.90
7014;DHT22;3547;50.774;12.918;2024-03-08T00:37:43;-0.70;99.90
7014;DHT22;3547;50.774;12.918;2024-03-08T00:40:12;-0.70;99.90
7014;DHT22;3547;50.774;12.918;2024-03-08T00:42:39;-0.60;99.90
7014;DHT22;3547;50.774;12.918;2024-03-08T00:45:07;-0.60;99.90
7014;DHT22;3547;50.774;12.918;2024-03-08T00:47:33;-0.60;99.90
7014;DHT22;3547;50.774;12.918;2024-03-08T00:49:59;-0.50;99.90
7014;DHT22;3547;50.774;12.918;2024-03-08T00:52:30;-0.50;99.90
7014;DHT22;3547;50.774;12.918;2024-03-08T00:54:56;-0.40;99.90
7014;DHT22;3547;50.774;12.918;2024-03-08T00:57:22;-0.30;99.90
7014;DHT22;3547;50.774;12.918;2024-03-08T00:59:48;-0.40;99.90
7014;DHT22;3547;50.774;12.918;2024-03-08T01:02:14;-0.30;1.00
7014;DHT22;3547;50.774;12.918;2024-03-08T01:04:42;-0.40;1.00
7014;DHT22;3547;50.774;12.918;2024-03-08T01:07:08;-0.30;1.00
7014;DHT22;3547;50.774;12.918;2024-03-08T01:09:34;-0.40;99.90
7014;DHT22;3547;50.774;12.918;2024-03-08T01:12:07;-0.30;99.90
7014;DHT22;3547;50.774;12.918;2024-03-08T01:14:33;-0.30;1.00
7014;DHT22;3547;50.774;12.918;2024-03-08T01:16:59;-0.40;1.00
7014;DHT22;3547;50.774;12.918;2024-03-08T01:19:25;-0.30;1.00
7014;DHT22;3547;50.774;12.918;2024-03-08T01:21:51;-0.40;1.00
7014;DHT22;3547;50.774;12.918;2024-03-08T01:24:17;-0.30;1.00
7014;DHT22;3547;50.774;12.918;2024-03-08T01:26:43;-0.30;1.00
7014;DHT22;3547;50.774;12.918;2024-03-08T01:29:10;-0.40;1.00
7014;DHT22;3547;50.774;12.918;2024-03-08T01:31:36;-0.40;1.00
7014;DHT22;3547;50.774;12.918;2024-03-08T01:34:02;-0.40;1.00
7014;DHT22;3547;50.774;12.918;2024-03-08T01:36:29;-0.30;1.00
7014;DHT22;3547;50.774;12.918;2024-03-08T01:38:55;-0.30;1.00
7014;DHT22;3547;50.774;12.918;2024-03-08T01:41:21;-0.30;1.00
7014;DHT22;3547;50.774;12.918;2024-03-08T01:43:47;-0.30;1.00
7014;DHT22;3547;50.774;12.918;2024-03-08T01:46:18;-0.30;1.00
7014;DHT22;3547;50.774;12.918;2024-03-08T01:48:45;-0.30;1.00
7014;DHT22;3547;50.774;12.918;2024-03-08T01:51:12;-0.30;1.00
7014;DHT22;3547;50.774;12.918;2024-03-08T01:53:38;-0.30;1.00
7014;DHT22;3547;50.774;12.918;2024-03-08T01:56:05;-0.20;1.00
7014;DHT22;3547;50.774;12.918;2024-03-08T01:58:32;-0.20;1.00
7014;DHT22;3547;50.774;12.918;2024-03-08T02:00:59;-0.20;1.00
7014;DHT22;3547;50.774;12.918;2024-03-08T02:03:25;-0.10;1.00
7014;DHT22;3547;50.774;12.918;2024-03-08T02:05:51;-0.20;1.00
7014;DHT22;3547;50.774;12.918;2024-03-08T02:08:19;-0.10;1.00
7014;DHT22;3547;50.774;12.918;2024-03-08T02:10:48;-0.20;1.00
7014;DHT22;3547;50.774;12.918;2024-03-08T02:13:15;-0.20;1.00
7014;DHT22;3547;50.774;12.918;2024-03-08T02:15:57;-0.20;1.00
7014;DHT22;3547;50.774;12.918;2024-03-08T02:18:30;-0.10;1.00
7014;DHT22;3547;50.774;12.918;2024-03-08T02:20:58;-0.20;1.00
7014;DHT22;3547;50.774;12.918;2024-03-08T02:23:28;-0.20;1.00
7014;DHT22;3547;50.774;12.918;2024-03-08T02:25:56;-0.20;1.00
7014;DHT22;3547;50.774;12.918;2024-03-08T02:28:23;-0.10;1.00
7014;DHT22;3547;50.774;12.918;2024-03-08T02:30:51;-0.20;6.00
7014;DHT22;3547;50.774;12.918;2024-03-08T02:33:20;-0.30;1.00
7014;DHT22;3547;50.774;12.918;2024-03-08T02:35:48;-0.20;24.60
7014;DHT22;3547;50.774;12.918;2024-03-08T02:38:16;-0.30;21.00
7014;DHT22;3547;50.774;12.918;2024-03-08T02:40:43;-0.20;26.40
7014;DHT22;3547;50.774;12.918;2024-03-08T02:43:10;-0.20;28.40
7014;DHT22;3547;50.774;12.918;2024-03-08T02:45:36;-0.10;35.90
7014;DHT22;3547;50.774;12.918;2024-03-08T02:48:03;-0.10;1.00
7014;DHT22;3547;50.774;12.918;2024-03-08T02:50:32;-0.10;1.00
7014;DHT22;3547;50.774;12.918;2024-03-08T02:52:58;-0.20;1.00
7014;DHT22;3547;50.774;12.918;2024-03-08T02:55:30;-0.10;1.00
7014;DHT22;3547;50.774;12.918;2024-03-08T02:58:16;-0.10;1.00
7014;DHT22;3547;50.774;12.918;2024-03-08T03:00:44;-0.10;1.00
7014;DHT22;3547;50.774;12.918;2024-03-08T03:03:12;-0.10;1.00
7014;DHT22;3547;50.774;12.918;2024-03-08T03:05:41;-0.20;1.00
7014;DHT22;3547;50.774;12.918;2024-03-08T03:08:13;-0.20;1.00
7014;DHT22;3547;50.774;12.918;2024-03-08T03:10:41;-0.10;1.00
7014;DHT22;3547;50.774;12.918;2024-03-08T03:13:08;-0.20;1.00
7014;DHT22;3547;50.774;12.918;2024-03-08T03:15:34;-0.20;99.90
7014;DHT22;3547;50.774;12.918;2024-03-08T03:18:00;-0.10;99.90
7014;DHT22;3547;50.774;12.918;2024-03-08T03:20:26;-0.10;1.00
7014;DHT22;3547;50.774;12.918;2024-03-08T03:22:59;-0.10;1.00
7014;DHT22;3547;50.774;12.918;2024-03-08T03:25:27;-0.20;1.00
7014;DHT22;3547;50.774;12.918;2024-03-08T03:27:59;-0.20;1.00
7014;DHT22;3547;50.774;12.918;2024-03-08T03:30:26;-0.20;1.00
7014;DHT22;3547;50.774;12.918;2024-03-08T03:32:52;-0.30;1.00
7014;DHT22;3547;50.774;12.918;2024-03-08T03:35:21;-0.30;1.00
7014;DHT22;3547;50.774;12.918;2024-03-08T03:37:47;-0.30;1.00
7014;DHT22;3547;50.774;12.918;2024-03-08T03:40:52;-0.30;1.00
7014;DHT22;3547;50.774;12.918;2024-03-08T03:43:22;-0.30;1.00
7014;DHT22;3547;50.774;12.918;2024-03-08T03:45:48;-0.30;1.00
7014;DHT22;3547;50.774;12.918;2024-03-08T03:48:14;-0.30;1.00
7014;DHT22;3547;50.774;12.918;2024-03-08T03:50:40;-0.30;1.00
7014;DHT22;3547;50.774;12.918;2024-03-08T03:53:06;-0.30;1.00
7014;DHT22;3547;50.774;12.918;2024-03-08T03:55:34;-0.30;1.00
7014;DHT22;3547;50.774;12.918;2024-03-08T03:58:00;-0.40;1.00
7014;DHT22;3547;50.774;12.918;2024-03-08T04:00:27;-0.40;1.00
7014;DHT22;3547;50.774;12.918;2024-03-08T04:02:53;-0.40;1.00
7014;DHT22;3547;50.774;12.918;2024-03-08T04:05:20;-0.40;1.00
7014;DHT22;3547;50.774;12.918;2024-03-08T04:07:46;-0.40;1.00
7014;DHT22;3547;50.774;12.918;2024-03-08T04:10:13;-0.40;99.90
7014;DHT22;3547;50.774;12.918;2024-03-08T04:12:39;-0.40;1.00
7014;DHT22;3547;50.774;12.918;2024-03-08T04:15:05;-0.60;1.00
7014;DHT22;3547;50.774;12.918;2024-03-08T04:17:34;-0.60;1.00
7014;DHT22;3547;50.774;12.918;2024-03-08T04:20:03;-0.70;1.00
7014;DHT22;3547;50.774;12.918;2024-03-08T04:22:36;-0.70;1.00
7014;DHT22;3547;50.774;12.918;2024-03-08T04:25:03;-0.70;1.00
7014;DHT22;3547;50.774;12.918;2024-03-08T04:27:30;-0.70;1.00
7014;DHT22;3547;50.774;12.918;2024-03-08T04:29:56;-0.80;1.00
7014;DHT22;3547;50.774;12.918;2024-03-08T04:32:22;-0.80;1.00
7014;DHT22;3547;50.774;12.918;2024-03-08T04:34:49;-0.80;1.00
7014;DHT22;3547;50.774;12.918;2024-03-08T04:37:15;-0.80;1.00
7014;DHT22;3547;50.774;12.918;2024-03-08T04:39:44;-0.80;17.20
7014;DHT22;3547;50.774;12.918;2024-03-08T04:42:10;-0.80;1.00
7014;DHT22;3547;50.774;12.918;2024-03-08T04:44:37;-0.80;1.00
7014;DHT22;3547;50.774;12.918;2024-03-08T04:47:22;-0.70;1.00
7014;DHT22;3547;50.774;12.918;2024-03-08T04:49:48;-0.70;1.00
7014;DHT22;3547;50.774;12.918;2024-03-08T04:52:15;-0.70;1.00
7014;DHT22;3547;50.774;12.918;2024-03-08T04:54:41;-0.60;1.00
7014;DHT22;3547;50.774;12.918;2024-03-08T04:57:07;-0.60;1.00
7014;DHT22;3547;50.774;12.918;2024-03-08T04:59:33;-0.60;1.00
7014;DHT22;3547;50.774;12.918;2024-03-08T05:01:59;-0.60;1.00
7014;DHT22;3547;50.774;12.918;2024-03-08T05:04:25;-0.60;1.00
7014;DHT22;3547;50.774;12.918;2024-03-08T05:06:51;-0.60;1.00
7014;DHT22;3547;50.774;12.918;2024-03-08T05:09:18;-0.60;1.00
7014;DHT22;3547;50.774;12.918;2024-03-08T05:11:45;-0.60;1.00
7014;DHT22;3547;50.774;12.918;2024-03-08T05:14:13;-0.70;1.00
7014;DHT22;3547;50.774;12.918;2024-03-08T05:16:48;-0.70;1.00
7014;DHT22;3547;50.774;12.918;2024-03-08T05:19:18;-0.70;1.00
7014;DHT22;3547;50.774;12.918;2024-03-08T05:21:46;-0.70;1.00
7014;DHT22;3547;50.774;12.918;2024-03-08T05:24:21;-0.70;1.00
7014;DHT22;3547;50.774;12.918;2024-03-08T05:26:47;-0.80;1.00
7014;DHT22;3547;50.774;12.918;2024-03-08T05:29:16;-0.80;1.00
7014;DHT22;3547;50.774;12.918;2024-03-08T05:31:48;-0.80;1.00
7014;DHT22;3547;50.774;12.918;2024-03-08T05:34:18;-0.90;1.00
7014;DHT22;3547;50.774;12.918;2024-03-08T05:36:51;-0.90;1.00
7014;DHT22;3547;50.774;12.918;2024-03-08T05:39:18;-0.90;1.00
7014;DHT22;3547;50.774;12.918;2024-03-08T05:41:45;-0.90;1.00
7014;DHT22;3547;50.774;12.918;2024-03-08T05:44:12;-1.00;1.00
7014;DHT22;3547;50.774;12.918;2024-03-08T05:46:39;-1.00;1.00
7014;DHT22;3547;50.774;12.918;2024-03-08T05:49:06;-1.00;1.00
7014;DHT22;3547;50.774;12.918;2024-03-08T05:51:37;-1.00;1.00
7014;DHT22;3547;50.774;12.918;2024-03-08T05:54:06;-1.10;1.00
7014;DHT22;3547;50.774;12.918;2024-03-08T05:56:32;-1.10;1.00
7014;DHT22;3547;50.774;12.918;2024-03-08T05:58:59;-1.00;1.00
7014;DHT22;3547;50.774;12.918;2024-03-08T06:01:26;-1.00;1.00
7014;DHT22;3547;50.774;12.918;2024-03-08T06:03:53;-1.00;1.00
7014;DHT22;3547;50.774;12.918;2024-03-08T06:06:25;-1.00;1.00
7014;DHT22;3547;50.774;12.918;2024-03-08T06:08:52;-0.90;1.00
7014;DHT22;3547;50.774;12.918;2024-03-08T06:11:19;-0.90;1.00
7014;DHT22;3547;50.774;12.918;2024-03-08T06:13:46;-0.90;1.00
7014;DHT22;3547;50.774;12.918;2024-03-08T06:16:12;-0.90;1.00
7014;DHT22;3547;50.774;12.918;2024-03-08T06:18:38;-0.80;1.00
7014;DHT22;3547;50.774;12.918;2024-03-08T06:21:08;-0.80;1.00
7014;DHT22;3547;50.774;12.918;2024-03-08T06:23:43;-0.80;1.00
7014;DHT22;3547;50.774;12.918;2024-03-08T06:26:09;-0.70;1.00
7014;DHT22;3547;50.774;12.918;2024-03-08T06:28:35;-0.70;1.00
7014;DHT22;3547;50.774;12.918;2024-03-08T06:31:01;-0.70;1.00
7014;DHT22;3547;50.774;12.918;2024-03-08T06:33:28;-0.70;1.00
7014;DHT22;3547;50.774;12.918;2024-03-08T06:35:55;-0.60;1.00
7014;DHT22;3547;50.774;12.918;2024-03-08T06:38:25;-0.60;1.00
7014;DHT22;3547;50.774;12.918;2024-03-08T06:40:51;-0.50;1.00
7014;DHT22;3547;50.774;12.918;2024-03-08T06:43:18;-0.40;1.00
7014;DHT22;3547;50.774;12.918;2024-03-08T06:45:45;-0.40;1.00
7014;DHT22;3547;50.774;12.918;2024-03-08T06:48:18;-0.30;1.00
7014;DHT22;3547;50.774;12.918;2024-03-08T06:50:46;-0.30;1.00
7014;DHT22;3547;50.774;12.918;2024-03-08T06:53:13;-0.20;1.00
7014;DHT22;3547;50.774;12.918;2024-03-08T06:55:40;-0.10;1.00
7014;DHT22;3547;50.774;12.918;2024-03-08T06:58:06;-0.10;1.00
7014;DHT22;3547;50.774;12.918;2024-03-08T07:00:33;0.00;1.00
7014;DHT22;3547;50.774;12.918;2024-03-08T07:02:59;0.10;1.00
7014;DHT22;3547;50.774;12.918;2024-03-08T07:05:29;0.10;1.00
7014;DHT22;3547;50.774;12.918;2024-03-08T07:07:55;0.20;1.00
7014;DHT22;3547;50.774;12.918;2024-03-08T07:10:24;0.30;1.00
7014;DHT22;3547;50.774;12.918;2024-03-08T07:12:51;0.40;1.00
7014;DHT22;3547;50.774;12.918;2024-03-08T07:15:17;0.40;1.00
7014;DHT22;3547;50.774;12.918;2024-03-08T07:17:45;0.50;1.00
7014;DHT22;3547;50.774;12.918;2024-03-08T07:20:13;0.60;1.00
7014;DHT22;3547;50.774;12.918;2024-03-08T07:22:41;0.60;1.00
7014;DHT22;3547;50.774;12.918;2024-03-08T07:25:08;0.70;1.00
7014;DHT22;3547;50.774;12.918;2024-03-08T07:27:54;0.90;1.00
7014;DHT22;3547;50.774;12.918;2024-03-08T07:30:26;1.00;1.00
7014;DHT22;3547;50.774;12.918;2024-03-08T07:33:11;1.10;1.00
7014;DHT22;3547;50.774;12.918;2024-03-08T07:35:38;1.20;1.00
7014;DHT22;3547;50.774;12.918;2024-03-08T07:38:05;1.30;1.00
7014;DHT22;3547;50.774;12.918;2024-03-08T07:40:35;1.40;1.00
7014;DHT22;3547;50.774;12.918;2024-03-08T07:43:01;1.50;1.00
7014;DHT22;3547;50.774;12.918;2024-03-08T07:45:28;1.70;1.00
7014;DHT22;3547;50.774;12.918;2024-03-08T07:47:54;1.80;1.00
7014;DHT22;3547;50.774;12.918;2024-03-08T07:50:24;1.80;1.00
7014;DHT22;3547;50.774;12.918;2024-03-08T07:52:50;1.90;1.00
7014;DHT22;3547;50.774;12.918;2024-03-08T07:55:25;2.10;1.00
7014;DHT22;3547;50.774;12.918;2024-03-08T07:57:52;2.10;1.00
7014;DHT22;3547;50.774;12.918;2024-03-08T08:00:18;2.20;1.00
7014;DHT22;3547;50.774;12.918;2024-03-08T08:02:45;2.30;1.00
7014;DHT22;3547;50.774;12.918;2024-03-08T08:05:15;2.30;1.00
7014;DHT22;3547;50.774;12.918;2024-03-08T08:07:45;2.40;1.00
7014;DHT22;3547;50.774;12.918;2024-03-08T08:10:12;2.50;1.00
7014;DHT22;3547;50.774;12.918;2024-03-08T08:12:44;2.50;1.00
7014;DHT22;3547;50.774;12.918;2024-03-08T08:15:11;2.60;1.00
7014;DHT22;3547;50.774;12.918;2024-03-08T08:17:38;2.70;1.00
7014;DHT22;3547;50.774;12.918;2024-03-08T08:20:05;2.80;1.00
7014;DHT22;3547;50.774;12.918;2024-03-08T08:22:31;2.90;1.00
7014;DHT22;3547;50.774;12.918;2024-03-08T08:24:58;3.00;1.00
7014;DHT22;3547;50.774;12.918;2024-03-08T08:27:27;3.10;1.00
7014;DHT22;3547;50.774;12.918;2024-03-08T08:29:53;3.30;1.00
7014;DHT22;3547;50.774;12.918;2024-03-08T08:32:19;3.40;1.00
7014;DHT22;3547;50.774;12.918;2024-03-08T08:34:46;3.40;1.00
7014;DHT22;3547;50.774;12.918;2024-03-08T08:37:12;3.50;1.00
7014;DHT22;3547;50.774;12.918;2024-03-08T08:39:38;3.60;1.00
7014;DHT22;3547;50.774;12.918;2024-03-08T08:42:04;3.80;1.00
7014;DHT22;3547;50.774;12.918;2024-03-08T08:44:30;3.90;1.00
7014;DHT22;3547;50.774;12.918;2024-03-08T08:47:00;4.00;1.00
7014;DHT22;3547;50.774;12.918;2024-03-08T08:49:26;4.10;1.00
7014;DHT22;3547;50.774;12.918;2024-03-08T08:51:52;4.20;1.00
7014;DHT22;3547;50.774;12.918;2024-03-08T08:54:19;4.40;1.00
7014;DHT22;3547;50.774;12.918;2024-03-08T08:56:46;4.40;1.00
7014;DHT22;3547;50.774;12.918;2024-03-08T08:59:13;4.50;1.00
7014;DHT22;3547;50.774;12.918;2024-03-08T09:01:40;4.50;1.00
7014;DHT22;3547;50.774;12.918;2024-03-08T09:04:06;4.60;1.00
7014;DHT22;3547;50.774;12.918;2024-03-08T09:06:33;4.70;1.00
7014;DHT22;3547;50.774;12.918;2024-03-08T09:08:59;4.90;1.00
7014;DHT22;3547;50.774;12.918;2024-03-08T09:11:25;4.90;1.00
7014;DHT22;3547;50.774;12.918;2024-03-08T09:13:51;4.90;1.00
7014;DHT22;3547;50.774;12.918;2024-03-08T09:16:18;4.90;1.00
7014;DHT22;3547;50.774;12.918;2024-03-08T09:18:49;5.00;1.00
7014;DHT22;3547;50.774;12.918;2024-03-08T09:21:15;5.20;1.00
7014;DHT22;3547;50.774;12.918;2024-03-08T09:23:44;5.40;1.00
7014;DHT22;3547;50.774;12.918;2024-03-08T09:26:10;5.50;1.00
7014;DHT22;3547;50.774;12.918;2024-03-08T09:28:40;5.60;1.00
7014;DHT22;3547;50.774;12.918;2024-03-08T09:31:07;5.80;1.00
7014;DHT22;3547;50.774;12.918;2024-03-08T09:33:34;6.00;1.00
7014;DHT22;3547;50.774;12.918;2024-03-08T09:36:00;6.00;1.00
7014;DHT22;3547;50.774;12.918;2024-03-08T09:38:26;6.20;1.00
7014;DHT22;3547;50.774;12.918;2024-03-08T09:40:52;6.40;1.00
7014;DHT22;3547;50.774;12.918;2024-03-08T09:43:19;6.40;1.00
7014;DHT22;3547;50.774;12.918;2024-03-08T09:45:46;6.60;1.00
7014;DHT22;3547;50.774;12.918;2024-03-08T09:48:16;6.70;1.00
7014;DHT22;3547;50.774;12.918;2024-03-08T09:50:45;6.80;1.00
7014;DHT22;3547;50.774;12.918;2024-03-08T09:53:12;7.00;1.00
7014;DHT22;3547;50.774;12.918;2024-03-08T09:55:38;7.20;1.00
7014;DHT22;3547;50.774;12.918;2024-03-08T09:58:12;7.30;1.00
7014;DHT22;3547;50.774;12.918;2024-03-08T10:00:54;7.40;1.00
7014;DHT22;3547;50.774;12.918;2024-03-08T10:03:20;7.40;1.00
7014;DHT22;3547;50.774;12.918;2024-03-08T10:05:46;7.50;1.00
7014;DHT22;3547;50.774;12.918;2024-03-08T10:08:12;7.60;1.00
7014;DHT22;3547;50.774;12.918;2024-03-08T10:10:39;7.80;1.00
7014;DHT22;3547;50.774;12.918;2024-03-08T10:13:09;7.90;1.00
7014;DHT22;3547;50.774;12.918;2024-03-08T10:15:36;8.10;1.00
7014;DHT22;3547;50.774;12.918;2024-03-08T10:18:04;8.20;1.00
7014;DHT22;3547;50.774;12.918;2024-03-08T10:20:31;8.40;1.00
7014;DHT22;3547;50.774;12.918;2024-03-08T10:23:18;8.40;1.00
7014;DHT22;3547;50.774;12.918;2024-03-08T10:25:44;8.60;1.00
7014;DHT22;3547;50.774;12.918;2024-03-08T10:28:10;8.70;1.00
7014;DHT22;3547;50.774;12.918;2024-03-08T10:30:36;8.80;1.00
7014;DHT22;3547;50.774;12.918;2024-03-08T10:33:03;8.80;1.00
7014;DHT22;3547;50.774;12.918;2024-03-08T10:35:31;8.80;1.00
7014;DHT22;3547;50.774;12.918;2024-03-08T10:37:57;8.80;1.00
7014;DHT22;3547;50.774;12.918;2024-03-08T10:40:28;8.80;1.00
7014;DHT22;3547;50.774;12.918;2024-03-08T10:42:56;8.60;1.00
7014;DHT22;3547;50.774;12.918;2024-03-08T10:45:35;8.80;1.00
7014;DHT22;3547;50.774;12.918;2024-03-08T10:48:27;8.90;1.00
7014;DHT22;3547;50.774;12.918;2024-03-08T10:50:57;8.80;1.00
7014;DHT22;3547;50.774;12.918;2024-03-08T10:53:27;8.80;1.00
7014;DHT22;3547;50.774;12.918;2024-03-08T10:55:54;8.80;1.00
7014;DHT22;3547;50.774;12.918;2024-03-08T10:58:24;8.90;1.00
7014;DHT22;3547;50.774;12.918;2024-03-08T11:00:54;8.90;1.00
7014;DHT22;3547;50.774;12.918;2024-03-08T11:06:22;9.10;1.00
7014;DHT22;3547;50.774;12.918;2024-03-08T11:08:49;9.10;1.00
7014;DHT22;3547;50.774;12.918;2024-03-08T11:11:32;9.10;1.00
7014;DHT22;3547;50.774;12.918;2024-03-08T11:14:01;9.10;1.00
7014;DHT22;3547;50.774;12.918;2024-03-08T11:18:58;9.40;1.00
7014;DHT22;3547;50.774;12.918;2024-03-08T11:21:31;9.40;1.00
7014;DHT22;3547;50.774;12.918;2024-03-08T11:24:11;9.70;1.00
7014;DHT22;3547;50.774;12.918;2024-03-08T11:26:44;9.90;1.00
7014;DHT22;3547;50.774;12.918;2024-03-08T11:34:33;10.30;1.00
7014;DHT22;3547;50.774;12.918;2024-03-08T11:36:59;10.30;1.00
7014;DHT22;3547;50.774;12.918;2024-03-08T11:39:26;10.50;1.00
7014;DHT22;3547;50.774;12.918;2024-03-08T11:41:52;10.60;1.00
7014;DHT22;3547;50.774;12.918;2024-03-08T11:44:19;10.90;1.00
7014;DHT22;3547;50.774;12.918;2024-03-08T11:46:46;11.00;1.00
7014;DHT22;3547;50.774;12.918;2024-03-08T11:49:14;11.20;1.00
7014;DHT22;3547;50.774;12.918;2024-03-08T11:51:41;11.40;1.00
7014;DHT22;3547;50.774;12.918;2024-03-08T11:54:12;11.60;1.00
7014;DHT22;3547;50.774;12.918;2024-03-08T11:56:41;11.60;1.00
7014;DHT22;3547;50.774;12.918;2024-03-08T11:59:13;11.70;1.00
7014;DHT22;3547;50.774;12.918;2024-03-08T12:01:39;11.70;1.00
7014;DHT22;3547;50.774;12.918;2024-03-08T12:04:05;11.70;1.00
7014;DHT22;3547;50.774;12.918;2024-03-08T12:06:39;11.90;1.00
7014;DHT22;3547;50.774;12.918;2024-03-08T12:09:12;12.10;1.00
7014;DHT22;3547;50.774;12.918;2024-03-08T12:11:39;12.20;1.00
7014;DHT22;3547;50.774;12.918;2024-03-08T12:14:06;12.30;1.00
7014;DHT22;3547;50.774;12.918;2024-03-08T12:16:32;12.50;1.00
7014;DHT22;3547;50.774;12.918;2024-03-08T12:19:03;12.60;1.00
7014;DHT22;3547;50.774;12.918;2024-03-08T12:21:33;12.60;1.00
7014;DHT22;3547;50.774;12.918;2024-03-08T12:24:06;12.70;1.00
7014;DHT22;3547;50.774;12.918;2024-03-08T12:26:39;12.60;1.00
7014;DHT22;3547;50.774;12.918;2024-03-08T12:29:21;12.30;1.00
7014;DHT22;3547;50.774;12.918;2024-03-08T12:31:59;11.90;1.00
7014;DHT22;3547;50.774;12.918;2024-03-08T12:34:27;11.70;1.00
7014;DHT22;3547;50.774;12.918;2024-03-08T12:36:54;11.50;1.00
7014;DHT22;3547;50.774;12.918;2024-03-08T12:39:22;11.40;1.00
7014;DHT22;3547;50.774;12.918;2024-03-08T12:42:24;11.50;1.00
7014;DHT22;3547;50.774;12.918;2024-03-08T12:44:54;11.40;1.00
7014;DHT22;3547;50.774;12.918;2024-03-08T12:47:23;11.50;1.00
7014;DHT22;3547;50.774;12.918;2024-03-08T12:49:54;11.50;1.00
7014;DHT22;3547;50.774;12.918;2024-03-08T12:52:24;11.60;1.00
7014;DHT22;3547;50.774;12.918;2024-03-08T12:54:57;11.70;1.00
7014;DHT22;3547;50.774;12.918;2024-03-08T12:57:23;11.70;1.00
7014;DHT22;3547;50.774;12.918;2024-03-08T12:59:52;11.70;1.00
7014;DHT22;3547;50.774;12.918;2024-03-08T13:02:19;11.60;1.00
7014;DHT22;3547;50.774;12.918;2024-03-08T13:04:49;11.50;1.00
7014;DHT22;3547;50.774;12.918;2024-03-08T13:07:25;11.40;1.00
7014;DHT22;3547;50.774;12.918;2024-03-08T13:09:55;11.20;1.00
7014;DHT22;3547;50.774;12.918;2024-03-08T13:12:25;11.10;1.00
7014;DHT22;3547;50.774;12.918;2024-03-08T13:14:55;11.10;1.00
7014;DHT22;3547;50.774;12.918;2024-03-08T13:17:22;11.20;1.00
7014;DHT22;3547;50.774;12.918;2024-03-08T13:19:48;11.30;1.00
7014;DHT22;3547;50.774;12.918;2024-03-08T13:22:14;11.30;1.00
7014;DHT22;3547;50.774;12.918;2024-03-08T13:24:42;11.30;1.00
7014;DHT22;3547;50.774;12.918;2024-03-08T13:27:11;11.20;1.00
7014;DHT22;3547;50.774;12.918;2024-03-08T13:29:47;11.30;1.00
7014;DHT22;3547;50.774;12.918;2024-03-08T13:32:17;11.20;1.00
7014;DHT22;3547;50.774;12.918;2024-03-08T13:34:44;11.40;1.00
7014;DHT22;3547;50.774;12.918;2024-03-08T13:37:20;11.40;1.00
7014;DHT22;3547;50.774;12.918;2024-03-08T13:39:46;11.30;1.00
7014;DHT22;3547;50.774;12.918;2024-03-08T13:42:15;11.50;1.00
7014;DHT22;3547;50.774;12.918;2024-03-08T13:44:45;11.50;1.00
7014;DHT22;3547;50.774;12.918;2024-03-08T13:47:16;11.50;1.00
7014;DHT22;3547;50.774;12.918;2024-03-08T13:49:43;11.40;1.00
7014;DHT22;3547;50.774;12.918;2024-03-08T13:52:13;11.40;1.00
7014;DHT22;3547;50.774;12.918;2024-03-08T13:54:40;11.50;1.00
7014;DHT22;3547;50.774;12.918;2024-03-08T13:57:07;11.40;1.00
7014;DHT22;3547;50.774;12.918;2024-03-08T13:59:33;11.50;1.00
7014;DHT22;3547;50.774;12.918;2024-03-08T14:02:03;11.70;1.00
7014;DHT22;3547;50.774;12.918;2024-03-08T14:04:30;11.70;1.00
7014;DHT22;3547;50.774;12.918;2024-03-08T14:06:56;11.60;1.00
7014;DHT22;3547;50.774;12.918;2024-03-08T14:09:25;11.40;1.00
7014;DHT22;3547;50.774;12.918;2024-03-08T14:11:52;11.30;1.00
7014;DHT22;3547;50.774;12.918;2024-03-08T14:14:35;11.20;1.00
7014;DHT22;3547;50.774;12.918;2024-03-08T14:17:02;11.20;1.00
7014;DHT22;3547;50.774;12.918;2024-03-08T14:19:28;11.10;1.00
7014;DHT22;3547;50.774;12.918;2024-03-08T14:21:56;11.10;1.00
7014;DHT22;3547;50.774;12.918;2024-03-08T14:24:25;10.70;1.00
7014;DHT22;3547;50.774;12.918;2024-03-08T14:26:51;10.80;1.00
7014;DHT22;3547;50.774;12.918;2024-03-08T14:29:17;10.70;1.00
7014;DHT22;3547;50.774;12.918;2024-03-08T14:31:46;10.70;1.00
7014;DHT22;3547;50.774;12.918;2024-03-08T14:34:12;10.90;1.00
7014;DHT22;3547;50.774;12.918;2024-03-08T14:36:40;10.90;1.00
7014;DHT22;3547;50.774;12.918;2024-03-08T14:39:06;10.90;1.00
7014;DHT22;3547;50.774;12.918;2024-03-08T14:41:33;10.80;1.00
7014;DHT22;3547;50.774;12.918;2024-03-08T14:43:59;10.70;1.00
7014;DHT22;3547;50.774;12.918;2024-03-08T14:46:25;10.60;1.00
7014;DHT22;3547;50.774;12.918;2024-03-08T14:48:53;10.50;1.00
7014;DHT22;3547;50.774;12.918;2024-03-08T14:51:19;10.40;1.00
7014;DHT22;3547;50.774;12.918;2024-03-08T14:53:48;10.20;1.00
7014;DHT22;3547;50.774;12.918;2024-03-08T14:56:16;10.30;1.00
7014;DHT22;3547;50.774;12.918;2024-03-08T14:58:48;10.40;1.00
7014;DHT22;3547;50.774;12.918;2024-03-08T15:01:18;10.30;1.00
7014;DHT22;3547;50.774;12.918;2024-03-08T15:03:50;10.10;1.00
7014;DHT22;3547;50.774;12.918;2024-03-08T15:06:16;10.10;1.00
7014;DHT22;3547;50.774;12.918;2024-03-08T15:08:45;10.00;1.00
7014;DHT22;3547;50.774;12.918;2024-03-08T15:11:12;10.00;1.00
7014;DHT22;3547;50.774;12.918;2024-03-08T15:13:44;10.00;1.00
7014;DHT22;3547;50.774;12.918;2024-03-08T15:16:14;10.00;1.00
7014;DHT22;3547;50.774;12.918;2024-03-08T15:18:50;10.10;1.00
7014;DHT22;3547;50.774;12.918;2024-03-08T15:21:17;10.10;1.00
7014;DHT22;3547;50.774;12.918;2024-03-08T15:23:45;10.10;1.00
7014;DHT22;3547;50.774;12.918;2024-03-08T15:26:20;10.20;1.00
7014;DHT22;3547;50.774;12.918;2024-03-08T15:28:46;10.20;1.00
7014;DHT22;3547;50.774;12.918;2024-03-08T15:31:15;10.20;1.00
7014;DHT22;3547;50.774;12.918;2024-03-08T15:33:41;10.60;1.00
7014;DHT22;3547;50.774;12.918;2024-03-08T15:36:12;11.10;1.00
7014;DHT22;3547;50.774;12.918;2024-03-08T15:38:41;11.60;1.00
7014;DHT22;3547;50.774;12.918;2024-03-08T15:41:09;12.00;1.00
7014;DHT22;3547;50.774;12.918;2024-03-08T15:43:37;12.40;1.00
7014;DHT22;3547;50.774;12.918;2024-03-08T15:46:03;12.30;1.00
7014;DHT22;3547;50.774;12.918;2024-03-08T15:48:33;12.50;1.00
7014;DHT22;3547;50.774;12.918;2024-03-08T15:51:04;12.90;1.00
7014;DHT22;3547;50.774;12.918;2024-03-08T15:53:35;12.60;1.00
7014;DHT22;3547;50.774;12.918;2024-03-08T15:56:03;12.30;1.00
7014;DHT22;3547;50.774;12.918;2024-03-08T15:58:32;11.70;1.00
7014;DHT22;3547;50.774;12.918;2024-03-08T16:00:58;11.60;1.00
7014;DHT22;3547;50.774;12.918;2024-03-08T16:03:27;11.20;1.00
7014;DHT22;3547;50.774;12.918;2024-03-08T16:05:56;11.20;1.00
7014;DHT22;3547;50.774;12.918;2024-03-08T16:08:23;10.90;1.00
7014;DHT22;3547;50.774;12.918;2024-03-08T16:10:51;10.80;1.00
7014;DHT22;3547;50.774;12.918;2024-03-08T16:13:27;10.60;1.00
7014;DHT22;3547;50.774;12.918;2024-03-08T16:15:54;10.50;1.00
7014;DHT22;3547;50.774;12.918;2024-03-08T16:18:21;10.20;1.00
7014;DHT22;3547;50.774;12.918;2024-03-08T16:20:50;10.00;1.00
7014;DHT22;3547;50.774;12.918;2024-03-08T16:23:30;9.70;1.00